Time;durP1;ratioP1;P1;durP2;ratioP2;P2;SDS_P1;SDS_P2;PMS_P1;PMS_P2;Temp;Humidity;BMP_temperature;BMP_pressure;BME280_temperature;BME280_humidity;BME280_pressure;Samples;Min_cycle;Max_cycle;Signal;HPM_P1;HPM_P2
2024/02/05 00:01:33;;;;;;;2.20;1.30;;;5.80;99.90;;;;;;5045943;28;20521;-35
2024/02/05 00:03:58;;;;;;;2.97;1.90;;;5.90;99.90;;;;;;5044490;28;20120;-33
2024/02/05 00:06:24;;;;;;;1.58;1.48;;;5.90;99.90;;;;;;5043843;28;20043;-34
2024/02/05 00:08:52;;;;;;;1.45;1.35;;;5.90;99.90;;;;;;5042504;28;20032;-32
2024/02/05 00:11:18;;;;;;;3.25;2.00;;;5.90;99.90;;;;;;5048869;28;20526;-35
2024/02/05 00:13:44;;;;;;;1.35;1.25;;;5.90;99.90;;;;;;5051246;28;20029;-33
2024/02/05 00:16:10;;;;;;;3.47;1.80;;;5.90;99.90;;;;;;5046403;28;20695;-33
2024/02/05 00:18:36;;;;;;;1.98;1.73;;;5.80;99.90;;;;;;5051444;28;20064;-34
2024/02/05 00:21:02;;;;;;;1.38;1.38;;;5.90;99.90;;;;;;5045557;28;20985;-37
2024/02/05 00:23:28;;;;;;;3.33;1.67;;;6.00;99.90;;;;;;5046554;28;20526;-33
2024/02/05 00:25:54;;;;;;;2.13;1.85;;;6.00;99.90;;;;;;5042880;28;20104;-38
2024/02/05 00:28:19;;;;;;;2.30;1.35;;;6.00;99.90;;;;;;5045143;28;20030;-34
2024/02/05 00:30:45;;;;;;;1.48;1.38;;;6.00;99.90;;;;;;5045479;28;20036;-34
2024/02/05 00:33:11;;;;;;;3.28;1.30;;;6.10;99.90;;;;;;5042856;28;20560;-34
2024/02/05 00:35:36;;;;;;;2.03;1.67;;;6.00;99.90;;;;;;5048161;28;20124;-33
2024/02/05 00:38:03;;;;;;;1.67;1.58;;;6.10;99.90;;;;;;5042768;28;20027;-36
2024/02/05 00:40:29;;;;;;;3.50;1.60;;;6.10;99.90;;;;;;5043431;28;20037;-39
2024/02/05 00:42:54;;;;;;;2.92;1.20;;;6.20;99.90;;;;;;5042376;28;20028;-38
2024/02/05 00:45:20;;;;;;;1.30;1.20;;;6.20;99.90;;;;;;5048905;28;20021;-41
2024/02/05 00:47:45;;;;;;;3.90;1.60;;;6.20;99.90;;;;;;5047783;28;20106;-40
2024/02/05 00:50:11;;;;;;;5.55;1.70;;;6.30;99.90;;;;;;5045212;28;20115;-40
2024/02/05 00:52:37;;;;;;;1.45;1.35;;;6.30;99.90;;;;;;5046846;28;20029;-39
2024/02/05 00:55:02;;;;;;;2.70;1.60;;;6.30;99.90;;;;;;5043997;28;20061;-37
2024/02/05 00:57:30;;;;;;;1.58;1.48;;;6.40;99.90;;;;;;5047505;28;20029;-41
2024/02/05 00:59:56;;;;;;;1.65;1.20;;;6.50;99.90;;;;;;5045990;28;20029;-38
2024/02/05 01:02:23;;;;;;;1.83;1.30;;;6.60;99.90;;;;;;5046628;28;20052;-41
2024/02/05 01:04:49;;;;;;;2.53;1.48;;;6.60;99.90;;;;;;5041408;28;20532;-40
2024/02/05 01:07:15;;;;;;;1.58;1.30;;;6.60;99.90;;;;;;5037431;28;20031;-40
2024/02/05 01:09:41;;;;;;;2.72;1.42;;;6.70;99.90;;;;;;5042948;28;20422;-39
2024/02/05 01:12:07;;;;;;;1.52;1.13;;;6.70;99.90;;;;;;5045465;28;20037;-37
2024/02/05 01:14:33;;;;;;;3.30;1.48;;;6.70;99.90;;;;;;5043116;28;20032;-40
2024/02/05 01:16:59;;;;;;;1.80;1.38;;;6.80;99.90;;;;;;5043123;28;20394;-40
2024/02/05 01:19:25;;;;;;;1.45;1.20;;;6.80;99.90;;;;;;5044395;28;20028;-41
2024/02/05 01:21:50;;;;;;;1.25;1.15;;;6.90;99.90;;;;;;5044758;28;20036;-40
2024/02/05 01:24:16;;;;;;;2.67;1.25;;;6.90;99.90;;;;;;5046379;28;20025;-41
2024/02/05 01:26:42;;;;;;;0.82;0.82;;;6.90;99.90;;;;;;5047686;28;20514;-34
2024/02/05 01:29:08;;;;;;;1.40;1.20;;;7.00;99.90;;;;;;5046845;28;20036;-41
2024/02/05 01:31:34;;;;;;;1.10;1.10;;;7.00;99.90;;;;;;5044043;28;20090;-41
2024/02/05 01:34:01;;;;;;;1.95;1.60;;;7.00;99.90;;;;;;5038779;28;20517;-42
2024/02/05 01:36:26;;;;;;;1.45;0.80;;;7.00;99.90;;;;;;5045338;28;20025;-39
2024/02/05 01:38:52;;;;;;;1.20;1.10;;;7.10;99.90;;;;;;5044869;28;20056;-40
2024/02/05 01:41:17;;;;;;;1.92;1.45;;;7.00;99.90;;;;;;5043455;28;20040;-42
2024/02/05 01:43:44;;;;;;;1.30;1.20;;;7.00;99.90;;;;;;5038340;28;20025;-42
2024/02/05 01:46:16;;;;;;;1.98;1.10;;;7.10;99.90;;;;;;5046970;28;20024;-43
2024/02/05 01:48:43;;;;;;;1.67;1.15;;;7.10;99.90;;;;;;5041291;28;20017;-41
2024/02/05 01:51:14;;;;;;;3.10;1.17;;;7.10;99.90;;;;;;5049179;28;20539;-39
2024/02/05 01:53:42;;;;;;;1.40;1.30;;;7.10;99.90;;;;;;5045863;28;20048;-40
2024/02/05 01:56:09;;;;;;;1.95;1.15;;;7.10;99.90;;;;;;5044455;28;20044;-40
2024/02/05 01:58:37;;;;;;;1.40;1.30;;;7.10;99.90;;;;;;5041216;28;20386;-39
2024/02/05 02:01:06;;;;;;;1.95;1.15;;;7.10;99.90;;;;;;5041398;28;20045;-38
2024/02/05 02:03:34;;;;;;;1.08;0.93;;;7.10;99.90;;;;;;5045850;28;20082;-39
2024/02/05 02:06:00;;;;;;;;;;;7.10;99.90;;;;;;5040526;28;20033;-40
2024/02/05 02:08:28;;;;;;;7.40;1.90;;;7.10;99.90;;;;;;5044494;28;19923;-41
2024/02/05 02:10:53;;;;;;;2.10;1.17;;;7.10;99.90;;;;;;5047689;28;20079;-38
2024/02/05 02:13:19;;;;;;;1.10;1.10;;;7.10;99.90;;;;;;5052793;28;20056;-40
2024/02/05 02:15:48;;;;;;;1.45;1.08;;;7.10;99.90;;;;;;5048814;28;20029;-40
2024/02/05 02:18:17;;;;;;;1.88;1.50;;;7.10;99.90;;;;;;5046660;28;20121;-40
2024/02/05 02:20:47;;;;;;;1.15;1.05;;;7.10;99.90;;;;;;5050354;28;20032;-39
2024/02/05 02:23:20;;;;;;;1.38;1.27;;;7.00;99.90;;;;;;5045572;28;20178;-39
2024/02/05 02:25:50;;;;;;;2.08;1.63;;;7.00;99.90;;;;;;5049796;28;20044;-40
2024/02/05 02:28:16;;;;;;;0.75;0.75;;;6.90;99.90;;;;;;5048554;28;20021;-41
2024/02/05 02:30:42;;;;;;;1.02;1.02;;;6.90;99.90;;;;;;5042986;28;20030;-41
2024/02/05 02:33:19;;;;;;;1.40;1.10;;;6.90;99.90;;;;;;5049326;28;20402;-38
2024/02/05 02:36:04;;;;;;;1.20;1.10;;;6.90;99.90;;;;;;5044508;28;20391;-39
2024/02/05 02:38:38;;;;;;;1.35;1.25;;;6.90;99.90;;;;;;5046433;28;20166;-39
2024/02/05 02:41:08;;;;;;;1.20;1.10;;;6.90;99.90;;;;;;5046270;28;20533;-41
2024/02/05 02:43:49;;;;;;;2.90;1.00;;;6.90;99.90;;;;;;5047596;28;20031;-41
2024/02/05 02:46:15;;;;;;;0.63;0.63;;;7.00;99.90;;;;;;5046891;28;20386;-39
2024/02/05 02:48:41;;;;;;;1.75;0.90;;;7.00;99.90;;;;;;5044486;28;20066;-39
2024/02/05 02:51:06;;;;;;;1.05;0.95;;;7.00;99.90;;;;;;5050683;28;20036;-40
2024/02/05 02:53:32;;;;;;;1.33;1.33;;;7.00;99.90;;;;;;5050113;28;20498;-40
2024/02/05 02:55:58;;;;;;;0.80;0.70;;;7.00;99.90;;;;;;5048658;28;20151;-40
2024/02/05 02:58:23;;;;;;;0.77;0.77;;;7.00;99.90;;;;;;5049306;28;20026;-40
2024/02/05 03:00:49;;;;;;;2.33;1.20;;;7.00;99.90;;;;;;5055800;28;20047;-40
2024/02/05 03:03:15;;;;;;;1.60;1.20;;;6.90;99.90;;;;;;5042364;28;20061;-41
2024/02/05 03:05:40;;;;;;;2.33;1.10;;;6.90;99.90;;;;;;5051885;28;20047;-40
2024/02/05 03:08:07;;;;;;;3.00;1.40;;;6.90;99.90;;;;;;5047072;28;20112;-37
2024/02/05 03:10:32;;;;;;;1.30;1.23;;;6.90;99.90;;;;;;5045041;28;20036;-41
2024/02/05 03:12:58;;;;;;;1.20;1.10;;;6.80;99.90;;;;;;5045947;28;20809;-39
2024/02/05 03:15:23;;;;;;;1.80;1.10;;;6.80;99.90;;;;;;5049908;28;20474;-41
2024/02/05 03:17:49;;;;;;;1.15;1.00;;;6.80;99.90;;;;;;5043309;28;20023;-40
2024/02/05 03:20:34;;;;;;;1.50;1.10;;;6.80;99.90;;;;;;5047391;28;20759;-40
2024/02/05 03:23:01;;;;;;;1.55;1.00;;;6.70;99.90;;;;;;5043465;28;20025;-36
2024/02/05 03:25:28;;;;;;;1.20;1.10;;;6.70;99.90;;;;;;5044145;28;20613;-41
2024/02/05 03:27:56;;;;;;;1.60;1.50;;;6.70;99.90;;;;;;5042239;28;20479;-39
2024/02/05 03:30:21;;;;;;;3.42;1.30;;;6.70;99.90;;;;;;5047418;28;20033;-38
2024/02/05 03:32:47;;;;;;;1.92;1.20;;;6.70;99.90;;;;;;5044693;28;20029;-40
2024/02/05 03:35:15;;;;;;;1.67;0.93;;;6.70;99.90;;;;;;5047189;28;20406;-35
2024/02/05 03:37:42;;;;;;;0.93;0.93;;;6.70;99.90;;;;;;5048141;28;20025;-39
2024/02/05 03:40:08;;;;;;;1.00;1.00;;;6.70;99.90;;;;;;5049441;28;20040;-41
2024/02/05 03:42:34;;;;;;;2.33;1.48;;;6.70;99.90;;;;;;5042928;28;20040;-40
2024/02/05 03:44:59;;;;;;;1.52;0.98;;;6.70;99.90;;;;;;5045938;28;20025;-40
2024/02/05 03:47:25;;;;;;;4.13;1.40;;;6.70;99.90;;;;;;5045338;28;20044;-40
2024/02/05 03:49:51;;;;;;;1.80;1.65;;;6.70;99.90;;;;;;5044295;28;20447;-41
2024/02/05 03:52:16;;;;;;;1.40;1.30;;;6.70;99.90;;;;;;5059964;28;20111;-41
2024/02/05 03:54:43;;;;;;;0.82;0.82;;;6.70;99.90;;;;;;5050030;28;20033;-41
2024/02/05 03:57:09;;;;;;;1.30;1.00;;;6.70;99.90;;;;;;5045401;28;20085;-39
2024/02/05 03:59:35;;;;;;;0.82;0.82;;;6.70;99.90;;;;;;5047362;28;20490;-41
2024/02/05 04:02:04;;;;;;;2.88;1.15;;;6.70;99.90;;;;;;5041007;28;20040;-36
2024/02/05 04:04:30;;;;;;;0.88;0.68;;;6.70;99.90;;;;;;5042873;28;20048;-41
2024/02/05 04:06:56;;;;;;;0.80;0.80;;;6.70;99.90;;;;;;5039387;28;20029;-40
2024/02/05 04:09:21;;;;;;;0.90;0.90;;;6.70;99.90;;;;;;5049346;28;20047;-35
2024/02/05 04:11:47;;;;;;;1.13;0.80;;;6.70;99.90;;;;;;5044154;28;20483;-33
2024/02/05 04:14:13;;;;;;;0.93;0.93;;;6.70;99.90;;;;;;5041133;28;20036;-34
2024/02/05 04:16:38;;;;;;;0.65;0.65;;;6.70;99.90;;;;;;5045966;28;20063;-36
2024/02/05 04:19:04;;;;;;;0.85;0.85;;;6.70;99.90;;;;;;5045316;28;20047;-35
2024/02/05 04:21:30;;;;;;;0.75;0.70;;;6.70;99.90;;;;;;5043132;28;20034;-34
2024/02/05 04:23:55;;;;;;;0.93;0.93;;;6.70;99.90;;;;;;5046692;28;20051;-36
2024/02/05 04:26:22;;;;;;;1.75;1.27;;;6.60;99.90;;;;;;5053580;28;20029;-33
2024/02/05 04:28:48;;;;;;;5.72;1.33;;;6.70;99.90;;;;;;5047246;28;20486;-33
2024/02/05 04:31:17;;;;;;;1.25;1.20;;;6.70;99.90;;;;;;5039925;28;20742;-33
2024/02/05 04:33:43;;;;;;;0.90;0.80;;;6.60;99.90;;;;;;5041629;28;20064;-34
2024/02/05 04:36:13;;;;;;;1.00;1.00;;;6.70;99.90;;;;;;5045019;28;20041;-34
2024/02/05 04:38:40;;;;;;;1.30;1.17;;;6.70;99.90;;;;;;5040714;28;20490;-33
2024/02/05 04:41:06;;;;;;;0.80;0.80;;;6.60;99.90;;;;;;5042924;28;20038;-33
2024/02/05 04:43:31;;;;;;;2.92;1.40;;;6.60;99.90;;;;;;5042004;28;20075;-34
2024/02/05 04:45:57;;;;;;;5.15;1.83;;;6.60;99.90;;;;;;5044617;28;20029;-38
2024/02/05 04:48:22;;;;;;;2.53;1.58;;;6.60;99.90;;;;;;5039350;28;20067;-34
2024/02/05 04:50:48;;;;;;;1.08;0.93;;;6.60;99.90;;;;;;5045689;28;20028;-34
2024/02/05 04:53:14;;;;;;;2.00;1.80;;;6.50;99.90;;;;;;5046102;28;20100;-35
2024/02/05 04:55:41;;;;;;;1.38;1.35;;;6.50;99.90;;;;;;5040345;28;20057;-33
2024/02/05 04:58:10;;;;;;;1.15;1.13;;;6.50;99.90;;;;;;5045600;28;20460;-36
2024/02/05 05:00:36;;;;;;;;;;;6.50;99.90;;;;;;5042678;28;20420;-34
2024/02/05 05:03:02;;;;;;;0.68;0.68;;;6.40;99.90;;;;;;5042716;28;19908;-38
2024/02/05 05:05:28;;;;;;;1.13;1.13;;;6.40;99.90;;;;;;5042469;28;20040;-32
2024/02/05 05:07:53;;;;;;;1.48;1.42;;;6.40;99.90;;;;;;5049674;28;20029;-33
2024/02/05 05:10:19;;;;;;;1.55;1.42;;;6.40;99.90;;;;;;5045422;28;20055;-36
2024/02/05 05:12:45;;;;;;;1.38;1.30;;;6.40;99.90;;;;;;5043910;28;20060;-33
2024/02/05 05:15:17;;;;;;;1.05;1.05;;;6.40;99.90;;;;;;5041154;28;20517;-35
2024/02/05 05:17:44;;;;;;;2.42;1.52;;;6.40;99.90;;;;;;5041371;28;20047;-33
2024/02/05 05:20:11;;;;;;;1.23;1.13;;;6.30;99.90;;;;;;5042939;28;20045;-32
2024/02/05 05:22:36;;;;;;;0.70;0.70;;;6.30;99.90;;;;;;5043146;28;20056;-34
2024/02/05 05:25:03;;;;;;;1.00;1.00;;;6.30;99.90;;;;;;5038872;28;20106;-35
2024/02/05 05:27:28;;;;;;;2.20;1.08;;;6.30;99.90;;;;;;5039319;28;20029;-32
2024/02/05 05:29:54;;;;;;;1.80;1.15;;;6.30;99.90;;;;;;5048380;28;20031;-33
2024/02/05 05:32:19;;;;;;;0.75;0.75;;;6.30;99.90;;;;;;5040796;28;20044;-35
2024/02/05 05:34:45;;;;;;;1.92;1.42;;;6.20;99.90;;;;;;5044908;28;20044;-33
2024/02/05 05:37:10;;;;;;;1.42;1.23;;;6.20;99.90;;;;;;5038643;28;20104;-33
2024/02/05 05:39:36;;;;;;;2.63;1.60;;;6.20;99.90;;;;;;5041182;28;20087;-32
2024/02/05 05:42:02;;;;;;;2.03;1.30;;;6.20;99.90;;;;;;5043360;28;20112;-35
2024/02/05 05:44:28;;;;;;;2.67;1.60;;;6.20;99.90;;;;;;5049478;28;20540;-32
2024/02/05 05:46:55;;;;;;;1.67;1.52;;;6.20;99.90;;;;;;5047367;28;20060;-34
2024/02/05 05:49:21;;;;;;;2.08;1.75;;;6.10;99.90;;;;;;5039829;28;20021;-36
2024/02/05 05:51:46;;;;;;;2.63;1.73;;;6.10;99.90;;;;;;5042940;28;20052;-33
2024/02/05 05:54:12;;;;;;;1.98;1.70;;;6.10;99.90;;;;;;5038766;28;20053;-35
2024/02/05 05:56:38;;;;;;;1.85;1.75;;;6.10;99.90;;;;;;5042847;28;20029;-33
2024/02/05 05:59:03;;;;;;;1.50;1.40;;;6.00;99.90;;;;;;5043480;28;20025;-34
2024/02/05 06:01:29;;;;;;;1.70;1.60;;;6.10;99.90;;;;;;5039911;28;20041;-32
2024/02/05 06:03:55;;;;;;;1.40;1.30;;;6.10;99.90;;;;;;5045171;28;20479;-34
2024/02/05 06:06:21;;;;;;;2.75;1.75;;;6.10;99.90;;;;;;5039650;28;20643;-33
2024/02/05 06:08:47;;;;;;;2.85;1.70;;;6.10;99.90;;;;;;5039550;28;20037;-42
2024/02/05 06:11:12;;;;;;;1.92;1.50;;;6.00;99.90;;;;;;5039765;28;20029;-43
2024/02/05 06:13:38;;;;;;;4.40;1.25;;;6.00;99.90;;;;;;5043880;28;20060;-42
2024/02/05 06:16:08;;;;;;;2.30;1.73;;;5.90;99.90;;;;;;5045937;28;20029;-43
2024/02/05 06:18:34;;;;;;;3.10;1.45;;;5.90;99.90;;;;;;5044995;28;20029;-42
2024/02/05 06:20:59;;;;;;;1.83;1.70;;;5.90;99.90;;;;;;5036579;28;20025;-42
2024/02/05 06:23:25;;;;;;;1.60;1.50;;;5.80;99.90;;;;;;5034148;28;20021;-41
2024/02/05 06:25:51;;;;;;;1.50;1.40;;;5.80;99.90;;;;;;5040710;28;20450;-41
2024/02/05 06:28:17;;;;;;;2.35;1.95;;;5.80;99.90;;;;;;5038875;28;20029;-40
2024/02/05 06:30:49;;;;;;;2.15;1.88;;;5.80;99.90;;;;;;5040037;28;20033;-41
2024/02/05 06:33:18;;;;;;;2.78;1.55;;;5.70;99.90;;;;;;5036731;28;20275;-40
2024/02/05 06:35:44;;;;;;;1.83;1.48;;;5.70;99.90;;;;;;5039083;28;20075;-41
2024/02/05 06:38:10;;;;;;;3.08;2.22;;;5.70;99.90;;;;;;5042933;28;20115;-40
2024/02/05 06:40:37;;;;;;;3.05;2.00;;;5.60;99.90;;;;;;5044930;28;20067;-40
2024/02/05 06:43:02;;;;;;;2.15;2.05;;;5.60;99.90;;;;;;5036503;28;20223;-38
2024/02/05 06:45:28;;;;;;;2.03;1.67;;;5.60;99.90;;;;;;5043537;28;20029;-40
2024/02/05 06:47:55;;;;;;;1.50;1.40;;;5.60;99.90;;;;;;5043670;28;20024;-40
2024/02/05 06:50:21;;;;;;;1.63;1.48;;;5.60;99.90;;;;;;5042595;28;20051;-40
2024/02/05 06:52:48;;;;;;;3.65;2.10;;;5.60;99.90;;;;;;5038692;28;20064;-41
2024/02/05 06:55:13;;;;;;;2.85;2.25;;;5.50;99.90;;;;;;5035690;28;20128;-41
2024/02/05 06:57:39;;;;;;;2.97;2.00;;;5.60;99.90;;;;;;5046735;28;20133;-38
2024/02/05 07:00:08;;;;;;;2.35;1.83;;;5.60;99.90;;;;;;5047131;28;20025;-41
2024/02/05 07:02:34;;;;;;;4.22;2.55;;;5.50;99.90;;;;;;5040488;28;20513;-41
2024/02/05 07:05:01;;;;;;;3.58;2.40;;;5.50;99.90;;;;;;5042769;28;20033;-37
2024/02/05 07:07:27;;;;;;;3.33;2.35;;;5.50;99.90;;;;;;5046205;28;20035;-41
2024/02/05 07:09:52;;;;;;;2.83;1.70;;;5.50;99.90;;;;;;5043256;28;20044;-39
2024/02/05 07:12:18;;;;;;;6.88;2.80;;;5.50;99.90;;;;;;5043720;28;20029;-40
2024/02/05 07:14:44;;;;;;;3.90;2.45;;;5.50;99.90;;;;;;5053915;28;20021;-41
2024/02/05 07:17:14;;;;;;;2.83;2.42;;;5.50;99.90;;;;;;5045974;28;20332;-38
2024/02/05 07:19:39;;;;;;;5.25;2.30;;;5.50;99.90;;;;;;5046499;28;20071;-41
2024/02/05 07:22:08;;;;;;;2.05;1.92;;;5.50;99.90;;;;;;5042046;28;20064;-42
2024/02/05 07:24:34;;;;;;;4.50;1.92;;;5.40;99.90;;;;;;5030009;28;20025;-43
2024/02/05 07:27:03;;;;;;;2.53;1.75;;;5.40;99.90;;;;;;5049257;28;20096;-33
2024/02/05 07:29:29;;;;;;;1.88;1.67;;;5.40;99.90;;;;;;5042152;28;20035;-41
2024/02/05 07:31:55;;;;;;;2.40;1.80;;;5.40;99.90;;;;;;5048434;28;20068;-40
2024/02/05 07:34:21;;;;;;;2.30;1.70;;;5.40;99.90;;;;;;5046248;28;20544;-39
2024/02/05 07:36:46;;;;;;;2.13;1.88;;;5.40;99.90;;;;;;5047123;28;20040;-40
2024/02/05 07:39:12;;;;;;;4.25;1.77;;;5.40;99.90;;;;;;5046822;28;20249;-40
2024/02/05 07:41:39;;;;;;;2.35;2.03;;;5.30;99.90;;;;;;5047402;28;20029;-39
2024/02/05 07:44:04;;;;;;;3.20;1.80;;;5.40;99.90;;;;;;5044785;28;20039;-40
2024/02/05 07:46:30;;;;;;;1.90;1.60;;;5.40;99.90;;;;;;5048864;28;20028;-41
2024/02/05 07:48:56;;;;;;;2.05;1.70;;;5.40;99.90;;;;;;5048629;28;20029;-42
2024/02/05 07:51:22;;;;;;;2.97;2.30;;;5.40;99.90;;;;;;5052583;28;20036;-43
2024/02/05 07:53:49;;;;;;;2.13;1.92;;;5.40;99.90;;;;;;5045218;28;20882;-40
2024/02/05 07:56:15;;;;;;;1.75;1.45;;;5.40;99.90;;;;;;5046436;28;20055;-40
2024/02/05 07:58:41;;;;;;;2.08;1.83;;;5.40;99.90;;;;;;5052302;28;20648;-41
2024/02/05 08:01:07;;;;;;;1.92;1.70;;;5.40;99.90;;;;;;5050857;28;20079;-41
2024/02/05 08:03:34;;;;;;;2.17;1.98;;;5.40;99.90;;;;;;5044119;28;20541;-39
2024/02/05 08:06:06;;;;;;;1.65;1.48;;;5.40;99.90;;;;;;5031829;28;20032;-34
2024/02/05 08:08:32;;;;;;;2.95;2.17;;;5.50;99.90;;;;;;5042695;28;20056;-35
2024/02/05 08:10:58;;;;;;;1.70;1.42;;;5.50;99.90;;;;;;5046594;28;20383;-41
2024/02/05 08:13:24;;;;;;;1.65;1.55;;;5.50;99.90;;;;;;5041292;28;20021;-41
2024/02/05 08:15:49;;;;;;;2.33;1.90;;;5.50;99.90;;;;;;5047775;28;20033;-41
2024/02/05 08:18:15;;;;;;;1.70;1.60;;;5.60;99.90;;;;;;5037551;28;20033;-42
2024/02/05 08:20:40;;;;;;;1.17;1.13;;;5.60;99.90;;;;;;5040763;28;20071;-41
2024/02/05 08:23:07;;;;;;;2.60;1.70;;;5.70;99.90;;;;;;5043953;28;20479;-40
2024/02/05 08:25:33;;;;;;;1.40;1.30;;;5.70;99.90;;;;;;5043811;28;20029;-42
2024/02/05 08:28:00;;;;;;;1.20;1.20;;;5.70;99.90;;;;;;5048381;28;20021;-39
2024/02/05 08:30:26;;;;;;;2.00;1.83;;;5.80;99.90;;;;;;5040763;28;20085;-41
2024/02/05 08:32:51;;;;;;;3.50;1.88;;;5.80;99.90;;;;;;5044564;28;20069;-36
2024/02/05 08:35:17;;;;;;;0.90;0.90;;;5.80;99.90;;;;;;5047790;28;20049;-42
2024/02/05 08:37:43;;;;;;;2.45;1.67;;;5.90;99.90;;;;;;5045489;28;20067;-42
2024/02/05 08:40:09;;;;;;;1.45;1.25;;;6.00;99.90;;;;;;5033165;28;20025;-41
2024/02/05 08:42:36;;;;;;;1.50;1.40;;;6.00;99.90;;;;;;5050556;28;20068;-42
2024/02/05 08:45:02;;;;;;;2.88;1.10;;;6.10;99.90;;;;;;5026927;28;20048;-36
2024/02/05 08:47:28;;;;;;;1.48;1.38;;;6.10;99.90;;;;;;5043234;28;20025;-42
2024/02/05 08:49:54;;;;;;;2.30;1.40;;;6.20;99.90;;;;;;5042838;28;20025;-41
2024/02/05 08:52:22;;;;;;;1.45;1.35;;;6.20;99.90;;;;;;5044344;28;20086;-43
2024/02/05 08:54:48;;;;;;;1.33;1.23;;;6.20;99.90;;;;;;5049116;28;20044;-41
2024/02/05 08:57:15;;;;;;;1.60;1.50;;;6.30;99.90;;;;;;5027001;28;20042;-41
2024/02/05 08:59:41;;;;;;;1.90;1.45;;;6.40;99.90;;;;;;5042906;28;20029;-39
2024/02/05 09:02:07;;;;;;;1.52;1.40;;;6.40;99.90;;;;;;5041673;28;20040;-42
2024/02/05 09:04:32;;;;;;;1.65;1.55;;;6.50;99.90;;;;;;5042889;28;20369;-37
2024/02/05 09:06:58;;;;;;;1.45;1.35;;;6.50;99.90;;;;;;5058379;28;20036;-40
2024/02/05 09:09:23;;;;;;;1.42;1.33;;;6.50;99.90;;;;;;5045463;28;20044;-41
2024/02/05 09:11:49;;;;;;;1.40;1.15;;;6.60;99.90;;;;;;5041499;28;20448;-38
2024/02/05 09:14:15;;;;;;;2.10;1.58;;;6.60;99.90;;;;;;5034982;28;20390;-42
2024/02/05 09:16:41;;;;;;;1.63;1.30;;;6.70;99.90;;;;;;5041261;28;20063;-42
2024/02/05 09:19:07;;;;;;;1.45;1.23;;;6.70;99.90;;;;;;5043203;28;20052;-40
2024/02/05 09:21:33;;;;;;;1.63;1.52;;;6.70;99.90;;;;;;5037307;28;20029;-39
2024/02/05 09:23:58;;;;;;;1.13;1.08;;;6.70;99.90;;;;;;5040388;28;20033;-41
2024/02/05 09:26:24;;;;;;;2.92;1.70;;;6.80;99.90;;;;;;5041895;28;20113;-42
2024/02/05 09:28:49;;;;;;;2.70;2.22;;;6.80;99.90;;;;;;5043437;28;20040;-42
2024/02/05 09:31:15;;;;;;;4.65;2.40;;;6.80;99.90;;;;;;5044974;28;20044;-40
2024/02/05 09:33:41;;;;;;;2.25;2.05;;;6.90;99.90;;;;;;5043396;28;20501;-41
2024/02/05 09:36:07;;;;;;;2.60;2.20;;;6.90;99.90;;;;;;5039742;28;20044;-41
2024/02/05 09:38:32;;;;;;;3.10;2.13;;;7.00;99.90;;;;;;5045165;28;20032;-33
2024/02/05 09:41:04;;;;;;;2.47;2.25;;;7.00;99.90;;;;;;5044837;28;20044;-35
2024/02/05 09:43:33;;;;;;;2.42;2.20;;;7.10;99.90;;;;;;5046305;28;20375;-33
2024/02/05 09:46:07;;;;;;;2.95;1.92;;;7.10;99.90;;;;;;5045039;28;20495;-37
2024/02/05 09:48:34;;;;;;;2.47;2.00;;;7.10;99.90;;;;;;5048834;28;20399;-33
2024/02/05 09:51:04;;;;;;;3.03;2.00;;;7.10;99.90;;;;;;5045438;28;20035;-33
2024/02/05 09:53:30;;;;;;;2.00;1.60;;;7.00;99.90;;;;;;5043948;28;20514;-33
2024/02/05 09:55:56;;;;;;;2.38;1.60;;;7.10;99.90;;;;;;5042137;28;20498;-33
2024/02/05 09:58:22;;;;;;;2.65;1.85;;;7.10;99.90;;;;;;5039222;28;20144;-41
2024/02/05 10:00:49;;;;;;;3.33;2.10;;;7.20;99.90;;;;;;5042276;28;20127;-41
2024/02/05 10:03:16;;;;;;;3.03;2.15;;;7.30;99.90;;;;;;5040761;28;20766;-41
2024/02/05 10:05:44;;;;;;;2.53;2.00;;;7.40;99.90;;;;;;5030428;28;20766;-43
2024/02/05 10:08:11;;;;;;;3.78;1.90;;;7.40;99.90;;;;;;5036500;28;20071;-41
2024/02/05 10:10:40;;;;;;;3.08;1.80;;;7.50;99.90;;;;;;5043026;28;20374;-42
2024/02/05 10:13:06;;;;;;;2.33;2.00;;;7.50;99.90;;;;;;5036521;28;20152;-43
2024/02/05 10:15:32;;;;;;;4.20;2.65;;;7.40;99.90;;;;;;5047611;28;20028;-43
2024/02/05 10:17:57;;;;;;;3.17;1.90;;;7.50;99.90;;;;;;5036658;28;20026;-41
2024/02/05 10:20:33;;;;;;;1.80;1.70;;;7.50;99.90;;;;;;5051053;28;20476;-42
2024/02/05 10:22:59;;;;;;;2.67;1.70;;;7.50;99.90;;;;;;5037284;28;20033;-42
2024/02/05 10:25:26;;;;;;;4.93;2.08;;;7.50;99.90;;;;;;5048255;28;20021;-40
2024/02/05 10:28:03;;;;;;;2.47;2.28;;;7.50;99.90;;;;;;5044784;28;20026;-37
2024/02/05 10:30:30;;;;;;;4.60;2.00;;;7.50;99.90;;;;;;5050496;28;20482;-41
2024/02/05 10:33:00;;;;;;;7.13;2.47;;;7.60;99.90;;;;;;5050581;28;20032;-37
2024/02/05 10:35:27;;;;;;;3.95;1.67;;;7.60;99.90;;;;;;5048310;28;20108;-43
2024/02/05 10:37:54;;;;;;;2.53;1.80;;;7.70;99.90;;;;;;5049049;28;20040;-37
2024/02/05 10:40:20;;;;;;;5.45;2.13;;;7.70;99.90;;;;;;5045761;28;20029;-40
2024/02/05 10:42:45;;;;;;;2.38;2.08;;;7.70;99.90;;;;;;5047699;28;20047;-41
2024/02/05 10:45:12;;;;;;;5.13;2.30;;;7.70;99.90;;;;;;5048912;28;20032;-39
2024/02/05 10:47:38;;;;;;;3.15;1.85;;;7.80;99.90;;;;;;5046205;28;20021;-39
2024/02/05 10:50:09;;;;;;;3.72;2.30;;;7.80;99.90;;;;;;5062321;28;20634;-38
2024/02/05 10:52:36;;;;;;;5.55;2.55;;;7.70;99.90;;;;;;5041354;28;20064;-38
2024/02/05 10:55:06;;;;;;;5.10;2.40;;;7.80;99.90;;;;;;5039207;28;20372;-35
2024/02/05 10:57:36;;;;;;;3.08;2.20;;;7.80;99.90;;;;;;5045524;28;20430;-42
2024/02/05 11:00:02;;;;;;;3.30;1.55;;;7.90;99.90;;;;;;5046884;28;20481;-37
2024/02/05 11:02:35;;;;;;;6.10;1.92;;;8.00;99.90;;;;;;5046438;28;20132;-38
2024/02/05 11:05:02;;;;;;;1.55;1.45;;;8.20;99.90;;;;;;5039023;28;20037;-36
2024/02/05 11:07:34;;;;;;;2.63;1.80;;;8.10;99.90;;;;;;5051211;28;20025;-40
2024/02/05 11:10:04;;;;;;;1.35;1.25;;;8.20;99.90;;;;;;5039030;28;20391;-37
2024/02/05 11:12:33;;;;;;;2.58;1.92;;;8.20;99.90;;;;;;5050726;28;20497;-37
2024/02/05 11:15:05;;;;;;;4.47;1.90;;;8.20;99.90;;;;;;5043899;28;20025;-35
2024/02/05 11:17:34;;;;;;;1.50;1.40;;;8.20;99.90;;;;;;5048412;28;20029;-35
2024/02/05 11:20:03;;;;;;;3.15;1.60;;;8.30;99.90;;;;;;5047104;28;20063;-37
2024/02/05 11:22:30;;;;;;;3.00;1.48;;;8.30;99.90;;;;;;5046404;28;20040;-33
2024/02/05 11:24:56;;;;;;;1.60;1.50;;;8.40;99.90;;;;;;5053319;28;20029;-32
2024/02/05 11:27:22;;;;;;;2.67;2.13;;;8.40;99.90;;;;;;5041124;28;20027;-33
2024/02/05 11:29:50;;;;;;;3.15;1.90;;;8.40;99.90;;;;;;5044052;28;20048;-32
2024/02/05 11:32:15;;;;;;;2.65;1.70;;;8.50;99.90;;;;;;5038572;28;20040;-33
2024/02/05 11:34:42;;;;;;;3.47;1.70;;;8.60;99.90;;;;;;5040416;28;20041;-32
2024/02/05 11:37:09;;;;;;;1.67;1.25;;;8.70;99.90;;;;;;5042614;28;20051;-36
2024/02/05 11:39:35;;;;;;;1.95;1.70;;;8.60;99.90;;;;;;5040363;28;20493;-32
2024/02/05 11:42:08;;;;;;;2.33;1.40;;;8.60;99.90;;;;;;5042611;28;20108;-36
2024/02/05 11:44:33;;;;;;;4.47;1.73;;;8.70;99.90;;;;;;5041543;28;20386;-31
2024/02/05 11:46:59;;;;;;;3.50;1.52;;;8.70;99.90;;;;;;5039905;28;20021;-35
2024/02/05 11:49:36;;;;;;;2.08;1.63;;;8.90;99.90;;;;;;5039986;28;20529;-31
2024/02/05 11:52:02;;;;;;;3.10;1.75;;;8.80;99.90;;;;;;5035184;28;20411;-34
2024/02/05 11:54:29;;;;;;;5.03;1.83;;;8.80;99.90;;;;;;5058332;28;20051;-32
2024/02/05 11:56:56;;;;;;;3.72;1.48;;;8.90;99.90;;;;;;5042805;28;20450;-32
2024/02/05 11:59:22;;;;;;;3.65;1.80;;;8.90;99.90;;;;;;5039028;28;20035;-37
2024/02/05 12:01:49;;;;;;;1.83;1.50;;;8.90;99.90;;;;;;5045180;28;20640;-41
2024/02/05 12:04:15;;;;;;;3.63;1.25;;;9.00;99.90;;;;;;5032129;28;20530;-39
2024/02/05 12:06:44;;;;;;;5.65;2.38;;;9.20;99.90;;;;;;5036429;28;20028;-40
2024/02/05 12:09:17;;;;;;;4.68;2.00;;;9.20;99.90;;;;;;5038776;28;20017;-34
2024/02/05 12:11:42;;;;;;;2.50;1.20;;;9.30;99.90;;;;;;5040958;28;20036;-41
2024/02/05 12:14:10;;;;;;;2.45;1.27;;;9.30;99.90;;;;;;5038500;28;20037;-40
2024/02/05 12:16:37;;;;;;;1.98;1.70;;;9.30;99.90;;;;;;5038695;28;20086;-42
2024/02/05 12:19:03;;;;;;;1.88;1.15;;;9.40;99.90;;;;;;5043051;28;20052;-40
2024/02/05 12:21:31;;;;;;;1.20;1.10;;;9.50;99.90;;;;;;5037728;28;20057;-42
2024/02/05 12:23:57;;;;;;;4.18;1.90;;;9.50;99.90;;;;;;5049930;28;20025;-42
2024/02/05 12:26:24;;;;;;;0.88;0.82;;;9.50;99.90;;;;;;5044557;28;20557;-43
2024/02/05 12:28:51;;;;;;;3.35;1.38;;;9.60;99.90;;;;;;5066358;28;20064;-41
2024/02/05 12:31:23;;;;;;;1.85;1.48;;;9.70;99.90;;;;;;5045414;28;20029;-40
2024/02/05 12:34:01;;;;;;;5.53;1.90;;;9.60;99.90;;;;;;5045022;28;20160;-41
2024/02/05 12:36:29;;;;;;;4.55;1.40;;;9.60;99.90;;;;;;5045517;28;20125;-42
2024/02/05 12:38:55;;;;;;;4.53;1.60;;;9.60;99.90;;;;;;5045249;28;20036;-41
2024/02/05 12:41:23;;;;;;;3.00;1.88;;;9.50;99.90;;;;;;5046689;28;20020;-43
2024/02/05 12:43:50;;;;;;;4.80;2.13;;;9.60;99.90;;;;;;5043685;28;20033;-42
2024/02/05 12:46:16;;;;;;;2.30;1.30;;;9.60;99.90;;;;;;5048555;28;20320;-38
2024/02/05 12:48:42;;;;;;;6.07;1.80;;;9.70;99.90;;;;;;5042735;28;20112;-41
2024/02/05 12:51:08;;;;;;;1.58;1.33;;;9.70;99.90;;;;;;5043941;28;20103;-41
2024/02/05 12:53:35;;;;;;;3.97;1.48;;;9.80;99.90;;;;;;5041227;28;20164;-41
2024/02/05 12:56:04;;;;;;;3.83;1.30;;;9.80;99.90;;;;;;5047344;28;20622;-38